Time;durP1;ratioP1;P1;durP2;ratioP2;P2;SDS_P1;SDS_P2;PMS_P1;PMS_P2;Temp;Humidity;BMP_temperature;BMP_pressure;BME280_temperature;BME280_humidity;BME280_pressure;Samples;Min_cycle;Max_cycle;Signal;HPM_P1;HPM_P2
2021/05/19 00:00:33;;;;;;;;;;;;;;;10.83;73.04;99812.13;2180286;40;20197;-80
2021/05/19 00:02:05;;;;;;;;;;;;;;;10.80;73.25;99821.28;2181490;41;19939;-79
2021/05/19 00:03:37;;;;;;;;;;;;;;;10.87;73.19;99824.16;2179447;40;20236;-80
2021/05/19 00:05:11;;;;;;;;;;;;;;;10.96;73.01;99815.22;2181134;41;19951;-79
2021/05/19 00:06:42;;;;;;;;;;;;;;;11.03;72.77;99823.50;2179229;40;19939;-80
2021/05/19 00:08:14;;;;;;;;;;;;;;;11.02;72.71;99814.63;2182967;41;19943;-80
2021/05/19 00:09:45;;;;;;;;;;;;;;;11.02;72.63;99819.13;2176757;41;19944;-80
2021/05/19 00:11:16;;;;;;;;;;;;;;;11.05;72.66;99825.00;2179986;40;20284;-79
2021/05/19 00:12:47;;;;;;;;;;;;;;;11.11;72.54;99814.72;2182041;41;19967;-80
2021/05/19 00:14:19;;;;;;;;;;;;;;;11.13;72.40;99823.44;2180019;40;19947;-79
2021/05/19 00:15:51;;;;;;;;;;;;;;;11.15;72.33;99826.75;2181564;41;19975;-80
2021/05/19 00:17:23;;;;;;;;;;;;;;;11.07;72.49;99831.06;2179325;40;20345;-79
2021/05/19 00:18:54;;;;;;;;;;;;;;;10.98;72.69;99823.13;2181073;40;19936;-79
2021/05/19 00:25:25;;;;;;;;;;;;;;;11.02;72.77;99828.00;2166415;41;20172;-81
2021/05/19 00:31:39;;;;;;;;;;;;;;;11.04;72.66;99820.69;2176333;41;19947;-79
2021/05/19 00:33:16;;;;;;;;;;;;;;;11.05;72.56;99822.34;2185622;40;19942;-79
2021/05/19 00:34:49;;;;;;;;;;;;;;;11.00;72.75;99827.31;2187882;40;19954;-80
2021/05/19 00:36:20;;;;;;;;;;;;;;;10.99;72.78;99825.63;2188632;40;19950;-80
2021/05/19 00:37:50;;;;;;;;;;;;;;;10.93;72.94;99820.91;2190814;40;19939;-81
2021/05/19 00:39:22;;;;;;;;;;;;;;;10.91;72.96;99831.75;2189128;40;19994;-81
2021/05/19 00:40:53;;;;;;;;;;;;;;;10.93;73.00;99827.09;2189086;40;19945;-80
2021/05/19 00:42:24;;;;;;;;;;;;;;;10.97;72.97;99832.13;2186019;40;20009;-80
2021/05/19 00:44:02;;;;;;;;;;;;;;;10.95;72.90;99823.41;2187455;40;20201;-80
2021/05/19 00:45:33;;;;;;;;;;;;;;;10.88;73.03;99831.19;2179691;41;19943;-80
2021/05/19 00:47:05;;;;;;;;;;;;;;;10.86;73.22;99830.53;2181204;41;20267;-80
2021/05/19 00:48:37;;;;;;;;;;;;;;;10.84;73.28;99827.16;2179281;40;19954;-79
2021/05/19 00:50:11;;;;;;;;;;;;;;;10.85;73.34;99829.69;2181280;40;19939;-80
2021/05/19 00:51:42;;;;;;;;;;;;;;;10.82;73.37;99821.13;2178367;40;19947;-79
2021/05/19 00:53:14;;;;;;;;;;;;;;;10.75;73.50;99826.22;2181068;41;19963;-80
2021/05/19 00:54:44;;;;;;;;;;;;;;;10.67;73.65;99832.34;2180093;41;20030;-79
2021/05/19 00:56:16;;;;;;;;;;;;;;;10.64;73.88;99823.78;2178748;40;19947;-80
2021/05/19 00:57:50;;;;;;;;;;;;;;;10.61;73.80;99820.44;2181364;41;19966;-80
2021/05/19 00:59:22;;;;;;;;;;;;;;;10.58;74.06;99823.41;2178902;40;19935;-80
2021/05/19 01:00:54;;;;;;;;;;;;;;;10.60;74.02;99825.91;2181314;41;19994;-81
2021/05/19 01:02:33;;;;;;;;;;;;;;;10.60;74.11;99821.41;2179229;40;19950;-79
2021/05/19 01:04:06;;;;;;;;;;;;;;;10.56;74.10;99829.88;2181587;41;19935;-80
2021/05/19 01:05:41;;;;;;;;;;;;;;;10.59;74.01;99829.56;2179611;41;19943;-80
2021/05/19 01:07:22;;;;;;;;;;;;;;;10.61;73.95;99825.78;2181521;41;20340;-80
2021/05/19 01:10:42;;;;;;;;;;;;;;;10.69;73.87;99830.34;2181268;41;19943;-79
2021/05/19 01:12:15;;;;;;;;;;;;;;;10.72;73.64;99829.22;2179350;40;19953;-80
2021/05/19 01:13:50;;;;;;;;;;;;;;;10.69;73.70;99830.34;2181077;41;19935;-80
2021/05/19 01:15:23;;;;;;;;;;;;;;;10.64;73.68;99829.97;2179969;41;20247;-80
2021/05/19 01:16:59;;;;;;;;;;;;;;;10.61;73.83;99827.59;2181968;41;19935;-79
2021/05/19 01:20:51;;;;;;;;;;;;;;;10.68;73.77;99827.84;2179769;40;20314;-80
2021/05/19 01:22:27;;;;;;;;;;;;;;;10.66;73.62;99828.00;2181899;41;19947;-80
2021/05/19 01:24:01;;;;;;;;;;;;;;;10.66;73.76;99822.66;2182036;40;19959;-80
2021/05/19 01:27:53;;;;;;;;;;;;;;;10.61;73.78;99819.56;2179213;40;19947;-80
2021/05/19 01:29:24;;;;;;;;;;;;;;;10.60;73.83;99821.41;2180923;40;20042;-79
2021/05/19 01:30:56;;;;;;;;;;;;;;;10.56;73.85;99819.19;2182317;41;20315;-79
2021/05/19 01:32:26;;;;;;;;;;;;;;;10.57;73.90;99820.88;2180910;40;19935;-80
2021/05/19 01:33:58;;;;;;;;;;;;;;;10.59;73.84;99818.88;2183501;41;20042;-79
2021/05/19 01:35:30;;;;;;;;;;;;;;;10.55;73.92;99821.00;2183512;40;19946;-79
2021/05/19 01:37:05;;;;;;;;;;;;;;;10.55;73.97;99817.50;2184945;41;19946;-80
2021/05/19 01:38:44;;;;;;;;;;;;;;;10.56;73.98;99822.69;2182995;40;19975;-79
2021/05/19 01:40:17;;;;;;;;;;;;;;;10.56;73.95;99816.53;2185014;41;19983;-80
2021/05/19 01:41:50;;;;;;;;;;;;;;;10.59;74.00;99825.06;2183328;40;19950;-80
2021/05/19 01:43:29;;;;;;;;;;;;;;;10.60;73.99;99820.56;2184102;41;19939;-80
2021/05/19 01:44:59;;;;;;;;;;;;;;;10.60;73.93;99823.22;2181668;40;19967;-80
2021/05/19 01:46:30;;;;;;;;;;;;;;;10.59;74.03;99818.88;2189851;40;19950;-79
2021/05/19 01:48:01;;;;;;;;;;;;;;;10.57;74.07;99816.38;2189643;40;19939;-80
2021/05/19 01:49:37;;;;;;;;;;;;;;;10.59;74.06;99824.22;2189938;40;19946;-80
2021/05/19 01:51:08;;;;;;;;;;;;;;;10.61;74.09;99817.75;2189196;40;19939;-80
2021/05/19 01:52:41;;;;;;;;;;;;;;;10.64;74.05;99816.59;2190857;40;19950;-81
2021/05/19 01:54:13;;;;;;;;;;;;;;;10.62;74.10;99823.94;2195908;40;19954;-79
2021/05/19 01:55:44;;;;;;;;;;;;;;;10.61;74.19;99816.91;2193119;40;19991;-80
2021/05/19 01:57:15;;;;;;;;;;;;;;;10.61;74.23;99817.75;2192257;40;19942;-80
2021/05/19 01:58:46;;;;;;;;;;;;;;;10.65;74.21;99826.31;2191829;40;19938;-79
2021/05/19 02:00:18;;;;;;;;;;;;;;;10.63;74.26;99825.63;2189289;40;19958;-80
2021/05/19 02:01:49;;;;;;;;;;;;;;;10.63;74.25;99819.44;2190272;40;19947;-80
2021/05/19 02:03:20;;;;;;;;;;;;;;;10.64;74.22;99821.94;2189914;40;19946;-81
2021/05/19 02:04:51;;;;;;;;;;;;;;;10.65;74.25;99823.63;2189351;40;19949;-81
2021/05/19 02:06:22;;;;;;;;;;;;;;;10.66;74.28;99825.31;2188019;40;19947;-81
2021/05/19 02:07:54;;;;;;;;;;;;;;;10.68;74.18;99825.16;2189713;40;19938;-80
2021/05/19 02:09:27;;;;;;;;;;;;;;;10.64;74.25;99829.97;2188998;40;19931;-79
2021/05/19 02:10:57;;;;;;;;;;;;;;;10.62;74.37;99826.59;2188696;40;19951;-80
2021/05/19 02:12:28;;;;;;;;;;;;;;;10.61;74.43;99827.59;2189212;40;19954;-80
2021/05/19 02:14:00;;;;;;;;;;;;;;;10.60;74.42;99831.25;2191579;40;19943;-80
2021/05/19 02:15:31;;;;;;;;;;;;;;;10.62;74.40;99834.63;2188310;40;21365;-81
2021/05/19 02:17:02;;;;;;;;;;;;;;;10.68;74.30;99836.69;2190222;40;19951;-80
2021/05/19 02:18:33;;;;;;;;;;;;;;;10.74;74.12;99833.44;2189116;40;19949;-79
2021/05/19 02:20:08;;;;;;;;;;;;;;;10.74;74.10;99838.78;2184597;40;20003;-81
2021/05/19 02:21:43;;;;;;;;;;;;;;;10.74;74.09;99836.09;2187422;40;19962;-79
2021/05/19 02:23:15;;;;;;;;;;;;;;;10.74;74.07;99832.56;2188025;40;19947;-78
2021/05/19 02:24:46;;;;;;;;;;;;;;;10.70;74.12;99833.88;2191375;40;19935;-80
2021/05/19 02:26:19;;;;;;;;;;;;;;;10.69;74.16;99837.53;2185692;40;19947;-80
2021/05/19 02:27:50;;;;;;;;;;;;;;;10.67;74.28;99848.41;2192914;40;19943;-81
2021/05/19 02:29:21;;;;;;;;;;;;;;;10.65;74.29;99839.69;2190439;40;20687;-81
2021/05/19 02:30:52;;;;;;;;;;;;;;;10.64;74.37;99842.47;2190836;40;20471;-80
2021/05/19 02:32:23;;;;;;;;;;;;;;;10.63;74.44;99840.81;2189293;40;20714;-80
2021/05/19 02:33:54;;;;;;;;;;;;;;;10.62;74.45;99837.28;2193336;40;19943;-80
2021/05/19 02:35:25;;;;;;;;;;;;;;;10.61;74.61;99843.63;2188868;40;19939;-80
2021/05/19 02:36:56;;;;;;;;;;;;;;;10.61;74.59;99840.97;2190331;40;19938;-80
2021/05/19 02:38:27;;;;;;;;;;;;;;;10.60;74.57;99841.94;2187449;40;19942;-80
2021/05/19 02:39:59;;;;;;;;;;;;;;;10.57;74.68;99842.25;2189492;40;19941;-80
2021/05/19 02:41:30;;;;;;;;;;;;;;;10.54;74.75;99847.91;2186546;40;19957;-80
2021/05/19 02:43:01;;;;;;;;;;;;;;;10.52;74.86;99841.84;2189668;40;19942;-80
2021/05/19 02:44:32;;;;;;;;;;;;;;;10.52;74.93;99845.38;2187750;40;20014;-80
2021/05/19 02:46:03;;;;;;;;;;;;;;;10.51;74.95;99841.03;2189328;40;19942;-80
2021/05/19 02:47:34;;;;;;;;;;;;;;;10.54;74.94;99839.88;2190329;40;20005;-80
2021/05/19 02:49:05;;;;;;;;;;;;;;;10.53;74.92;99843.53;2185290;40;19939;-80
2021/05/19 02:50:36;;;;;;;;;;;;;;;10.53;74.93;99847.03;2186512;40;20656;-80
2021/05/19 02:52:07;;;;;;;;;;;;;;;10.55;74.96;99847.75;2189758;40;19953;-80
2021/05/19 02:53:38;;;;;;;;;;;;;;;10.57;74.89;99847.59;2188514;40;20501;-80
2021/05/19 02:55:11;;;;;;;;;;;;;;;10.59;74.93;99848.28;2192785;40;19954;-81
2021/05/19 02:56:42;;;;;;;;;;;;;;;10.58;74.92;99847.44;2186765;40;20415;-80
2021/05/19 02:58:13;;;;;;;;;;;;;;;10.57;74.95;99852.97;2190179;40;19946;-80
2021/05/19 02:59:44;;;;;;;;;;;;;;;10.53;74.96;99847.03;2190242;40;19939;-81
2021/05/19 03:01:17;;;;;;;;;;;;;;;10.53;75.03;99854.22;2189825;40;20362;-80
2021/05/19 03:02:49;;;;;;;;;;;;;;;10.51;75.07;99850.84;2188587;40;19949;-78
2021/05/19 03:04:20;;;;;;;;;;;;;;;10.55;75.06;99857.59;2193972;40;19937;-77
2021/05/19 03:07:44;;;;;;;;;;;;;;;10.71;74.71;99855.09;2191358;40;19942;-77
2021/05/19 03:09:15;;;;;;;;;;;;;;;10.74;74.53;99853.97;2190952;40;19946;-76
2021/05/19 03:10:50;;;;;;;;;;;;;;;10.71;74.46;99857.78;2191473;40;19938;-77
2021/05/19 03:12:21;;;;;;;;;;;;;;;10.62;74.51;99861.34;2184818;40;20019;-77
2021/05/19 03:13:52;;;;;;;;;;;;;;;10.60;74.70;99868.69;2194439;40;19957;-78
2021/05/19 03:15:26;;;;;;;;;;;;;;;10.58;74.67;99868.00;2187882;40;19938;-77
2021/05/19 03:17:02;;;;;;;;;;;;;;;10.55;74.66;99868.28;2193090;40;19945;-76
2021/05/19 03:18:33;;;;;;;;;;;;;;;10.51;74.76;99874.91;2183404;40;19943;-79
2021/05/19 03:20:05;;;;;;;;;;;;;;;10.45;74.83;99866.50;2184834;40;19990;-77
2021/05/19 03:21:36;;;;;;;;;;;;;;;10.44;74.82;99875.53;2184990;40;19927;-77
2021/05/19 03:23:07;;;;;;;;;;;;;;;10.45;74.73;99877.22;2194223;40;19943;-76
2021/05/19 03:24:38;;;;;;;;;;;;;;;10.50;74.66;99878.56;2188408;40;19931;-77
2021/05/19 03:26:10;;;;;;;;;;;;;;;10.50;74.59;99879.44;2179663;40;19958;-76
2021/05/19 03:27:41;;;;;;;;;;;;;;;10.50;74.58;99876.75;2170988;40;19944;-77
2021/05/19 03:29:12;;;;;;;;;;;;;;;10.51;74.56;99880.25;2174162;41;20355;-78
2021/05/19 03:30:43;;;;;;;;;;;;;;;10.53;74.53;99875.63;2170617;41;19992;-79
2021/05/19 03:32:14;;;;;;;;;;;;;;;10.53;74.49;99879.13;2171518;41;19952;-80
2021/05/19 03:33:46;;;;;;;;;;;;;;;10.52;74.46;99877.47;2181264;40;19967;-80
2021/05/19 03:35:17;;;;;;;;;;;;;;;10.57;74.48;99885.03;2181889;40;19943;-77
2021/05/19 03:36:51;;;;;;;;;;;;;;;10.58;74.42;99889.41;2184298;40;19939;-79
2021/05/19 03:38:22;;;;;;;;;;;;;;;10.59;74.32;99888.38;2179784;40;19943;-80
2021/05/19 03:39:57;;;;;;;;;;;;;;;10.61;74.28;99892.59;2182319;41;19962;-80
2021/05/19 03:41:32;;;;;;;;;;;;;;;10.64;74.24;99890.59;2180390;40;19983;-81
2021/05/19 03:43:04;;;;;;;;;;;;;;;10.59;74.20;99893.72;2181990;41;19962;-79
2021/05/19 03:44:40;;;;;;;;;;;;;;;10.59;74.33;99891.03;2143355;40;19971;-79
2021/05/19 03:46:13;;;;;;;;;;;;;;;10.58;74.36;99900.91;2168095;41;19939;-79
2021/05/19 03:47:48;;;;;;;;;;;;;;;10.64;74.36;99898.63;2174102;40;19947;-78
2021/05/19 03:49:20;;;;;;;;;;;;;;;10.61;74.30;99897.94;2175389;41;19998;-79
2021/05/19 03:50:51;;;;;;;;;;;;;;;10.60;74.35;99900.75;2173373;40;20237;-79
2021/05/19 03:52:22;;;;;;;;;;;;;;;10.56;74.44;99905.56;2175404;41;20019;-79
2021/05/19 03:53:55;;;;;;;;;;;;;;;10.54;74.52;99898.69;2175817;40;19939;-81
2021/05/19 03:55:26;;;;;;;;;;;;;;;10.49;74.57;99901.81;2178067;41;19950;-79
2021/05/19 03:56:59;;;;;;;;;;;;;;;10.50;74.65;99903.50;2176661;40;19947;-79
2021/05/19 03:58:30;;;;;;;;;;;;;;;10.49;74.60;99900.94;2176609;41;19947;-79
2021/05/19 04:00:01;;;;;;;;;;;;;;;10.47;74.71;99900.28;2174244;40;19943;-79
2021/05/19 04:01:32;;;;;;;;;;;;;;;10.43;74.64;99907.75;2175776;41;19947;-79
2021/05/19 04:03:04;;;;;;;;;;;;;;;10.40;74.68;99902.69;2174072;40;19943;-79
2021/05/19 04:04:35;;;;;;;;;;;;;;;10.41;74.74;99902.53;2175252;41;19939;-79
2021/05/19 04:06:06;;;;;;;;;;;;;;;10.45;74.76;99903.06;2173896;40;19939;-79
2021/05/19 04:07:37;;;;;;;;;;;;;;;10.46;74.73;99910.09;2175725;41;19944;-78
2021/05/19 04:09:11;;;;;;;;;;;;;;;10.48;74.65;99915.31;2174283;40;19939;-79
2021/05/19 04:10:42;;;;;;;;;;;;;;;10.50;74.66;99916.84;2174696;41;19936;-79
2021/05/19 04:12:14;;;;;;;;;;;;;;;10.52;74.50;99914.03;2173733;40;19939;-79
2021/05/19 04:13:46;;;;;;;;;;;;;;;10.51;74.46;99915.00;2175476;41;19936;-79
2021/05/19 04:15:17;;;;;;;;;;;;;;;10.50;74.48;99916.84;2174201;40;20521;-79
2021/05/19 04:16:48;;;;;;;;;;;;;;;10.44;74.46;99918.28;2174944;41;20018;-79
2021/05/19 04:18:21;;;;;;;;;;;;;;;10.43;74.48;99919.25;2173787;40;19955;-79
2021/05/19 04:19:52;;;;;;;;;;;;;;;10.44;74.37;99920.09;2175448;41;19942;-79
2021/05/19 04:21:23;;;;;;;;;;;;;;;10.46;74.35;99926.13;2173963;40;19935;-79
2021/05/19 04:22:55;;;;;;;;;;;;;;;10.44;74.34;99923.63;2175578;41;19935;-80
2021/05/19 04:24:26;;;;;;;;;;;;;;;10.44;74.48;99933.44;2174088;40;19939;-79
2021/05/19 04:25:57;;;;;;;;;;;;;;;10.45;74.30;99925.31;2181361;41;19936;-79
2021/05/19 04:27:29;;;;;;;;;;;;;;;10.46;74.25;99928.81;2179647;40;20065;-79
2021/05/19 04:29:00;;;;;;;;;;;;;;;10.47;74.25;99927.81;2181542;41;19939;-79
2021/05/19 04:30:31;;;;;;;;;;;;;;;10.51;74.29;99928.38;2168081;41;20501;-79
2021/05/19 04:32:04;;;;;;;;;;;;;;;10.57;74.04;99938.50;2169462;41;19944;-80
2021/05/19 04:33:35;;;;;;;;;;;;;;;10.53;73.94;99937.09;2168008;41;19955;-79
2021/05/19 04:35:07;;;;;;;;;;;;;;;10.55;73.92;99943.97;2169701;41;19951;-79
2021/05/19 04:36:38;;;;;;;;;;;;;;;10.58;73.84;99940.19;2169935;41;19950;-79
2021/05/19 04:38:11;;;;;;;;;;;;;;;10.52;73.77;99938.94;2172805;41;19972;-80
2021/05/19 04:40:20;;;;;;;;;;;;;;;10.47;73.88;99943.03;2171157;41;19964;-80
2021/05/19 04:48:30;;;;;;;;;;;;;;;10.45;73.94;99957.38;2168131;41;20301;-82
2021/05/19 04:50:05;;;;;;;;;;;;;;;10.46;73.86;99958.22;2170283;41;19943;-81
2021/05/19 05:01:44;;;;;;;;;;;;;;;10.42;73.90;99970.19;2171469;41;19943;-81
2021/05/19 05:03:31;;;;;;;;;;;;;;;10.43;73.81;99972.72;2169725;41;19951;-81
2021/05/19 05:05:24;;;;;;;;;;;;;;;10.42;73.82;99971.03;2171733;41;19966;-80
2021/05/19 05:07:06;;;;;;;;;;;;;;;10.47;73.79;99969.75;2166831;41;19944;-79
2021/05/19 05:08:37;;;;;;;;;;;;;;;10.47;73.71;99975.09;2169628;41;19947;-80
2021/05/19 05:10:09;;;;;;;;;;;;;;;10.52;73.62;99970.16;2172044;41;19940;-80
2021/05/19 05:11:41;;;;;;;;;;;;;;;10.50;73.59;99974.78;2174841;40;19939;-79
2021/05/19 05:13:13;;;;;;;;;;;;;;;10.45;73.57;99977.91;2170642;41;19959;-79
2021/05/19 05:14:44;;;;;;;;;;;;;;;10.45;73.71;99981.44;2170193;41;19939;-79
2021/05/19 05:16:15;;;;;;;;;;;;;;;10.44;73.74;99981.56;2172721;41;19947;-78
2021/05/19 05:17:46;;;;;;;;;;;;;;;10.42;73.68;99983.56;2171755;41;19952;-80
2021/05/19 05:19:17;;;;;;;;;;;;;;;10.49;73.60;99979.31;2174053;41;19940;-78
2021/05/19 05:20:47;;;;;;;;;;;;;;;10.48;73.53;99982.13;2173425;41;19932;-78
2021/05/19 05:22:19;;;;;;;;;;;;;;;10.50;73.48;99977.47;2174756;41;19955;-78
2021/05/19 05:23:50;;;;;;;;;;;;;;;10.52;73.52;99983.50;2177500;40;19940;-79
2021/05/19 05:25:22;;;;;;;;;;;;;;;10.59;73.22;99976.59;2175598;41;19940;-79
2021/05/19 05:26:54;;;;;;;;;;;;;;;10.55;73.17;99985.91;2170591;41;19996;-79
2021/05/19 05:28:26;;;;;;;;;;;;;;;10.55;73.19;99986.72;2171774;41;19951;-79
2021/05/19 05:29:56;;;;;;;;;;;;;;;10.56;73.20;99987.59;2173520;41;19975;-79
2021/05/19 05:31:27;;;;;;;;;;;;;;;10.57;73.12;99982.09;2173241;41;19983;-79
2021/05/19 05:32:58;;;;;;;;;;;;;;;10.56;73.05;99990.25;2158747;41;19959;-79
2021/05/19 05:34:29;;;;;;;;;;;;;;;10.60;73.11;99980.94;2158496;41;20112;-79
2021/05/19 05:36:00;;;;;;;;;;;;;;;10.64;72.87;99973.47;2147153;41;19956;-79
2021/05/19 05:37:31;;;;;;;;;;;;;;;10.61;72.93;99983.50;2147945;41;19960;-80
2021/05/19 05:39:03;;;;;;;;;;;;;;;10.70;72.94;99975.56;2136614;41;19945;-80
2021/05/19 05:40:34;;;;;;;;;;;;;;;10.73;72.66;99981.47;2146096;41;19945;-79
2021/05/19 05:42:05;;;;;;;;;;;;;;;10.79;72.62;99977.38;2153088;41;19932;-77
2021/05/19 05:43:36;;;;;;;;;;;;;;;10.80;72.43;99976.38;2169236;41;19944;-77
2021/05/19 05:45:09;;;;;;;;;;;;;;;10.81;72.44;99982.56;2169840;41;19955;-79
2021/05/19 05:46:40;;;;;;;;;;;;;;;10.77;72.40;99982.84;2160919;41;19944;-78
2021/05/19 05:48:12;;;;;;;;;;;;;;;10.79;72.53;99979.19;2161528;41;19975;-77
2021/05/19 05:49:43;;;;;;;;;;;;;;;10.79;72.41;99995.22;2161420;41;19951;-77
2021/05/19 05:51:14;;;;;;;;;;;;;;;10.76;72.38;99983.00;2160437;41;19943;-78
2021/05/19 05:52:46;;;;;;;;;;;;;;;10.78;72.28;99983.69;2172352;41;19999;-79
2021/05/19 05:54:18;;;;;;;;;;;;;;;10.79;72.35;99987.19;2176164;40;19935;-78
2021/05/19 05:55:49;;;;;;;;;;;;;;;10.86;72.21;99983.81;2171997;41;20066;-80
2021/05/19 05:57:20;;;;;;;;;;;;;;;10.89;72.10;99988.00;2170826;41;19948;-77
2021/05/19 05:58:52;;;;;;;;;;;;;;;10.92;71.99;99977.03;2168065;41;19951;-78
2021/05/19 06:00:32;;;;;;;;;;;;;;;10.98;71.90;99983.59;2166739;41;19951;-81
2021/05/19 06:02:03;;;;;;;;;;;;;;;11.06;71.66;99984.53;2164792;41;19959;-80
2021/05/19 06:03:35;;;;;;;;;;;;;;;11.17;71.58;99982.63;2162293;41;19951;-80
2021/05/19 06:05:39;;;;;;;;;;;;;;;11.27;71.35;99983.41;2164715;41;19951;-81
2021/05/19 06:07:13;;;;;;;;;;;;;;;11.29;70.87;99980.63;2162103;41;20054;-80
2021/05/19 06:08:47;;;;;;;;;;;;;;;11.29;71.06;99981.44;2163201;41;20032;-80
2021/05/19 06:10:20;;;;;;;;;;;;;;;11.28;70.87;99974.41;2165370;41;19948;-80
2021/05/19 06:11:52;;;;;;;;;;;;;;;11.27;70.98;99983.41;2160602;41;20225;-80
2021/05/19 06:13:25;;;;;;;;;;;;;;;11.27;71.02;99980.75;2165428;41;19976;-80
2021/05/19 06:14:58;;;;;;;;;;;;;;;11.20;70.70;99974.31;2167239;41;19951;-80
2021/05/19 06:16:34;;;;;;;;;;;;;;;11.11;70.93;99986.75;2166635;41;20035;-80
2021/05/19 06:18:19;;;;;;;;;;;;;;;11.04;71.17;99985.69;2163145;41;19940;-80
2021/05/19 06:19:50;;;;;;;;;;;;;;;10.98;71.22;99987.09;2165088;41;20013;-79
2021/05/19 06:21:28;;;;;;;;;;;;;;;10.91;71.31;99988.69;2168214;41;20000;-79
2021/05/19 06:23:13;;;;;;;;;;;;;;;10.85;71.66;99994.66;2170981;41;19944;-80
2021/05/19 06:35:09;;;;;;;;;;;;;;;11.53;70.23;99998.72;2177343;41;20403;-80
2021/05/19 06:36:45;;;;;;;;;;;;;;;11.61;69.96;99990.81;2171508;40;19966;-80
2021/05/19 06:38:39;;;;;;;;;;;;;;;11.68;69.77;99994.56;2173571;40;19936;-80
2021/05/19 06:48:40;;;;;;;;;;;;;;;12.01;68.76;100002.88;2173380;40;20043;-80
2021/05/19 06:52:54;;;;;;;;;;;;;;;12.02;68.26;99991.16;2157035;41;19940;-80
2021/05/19 06:54:46;;;;;;;;;;;;;;;11.96;68.79;99991.78;2183170;40;19947;-77
2021/05/19 06:56:18;;;;;;;;;;;;;;;12.01;68.64;99991.34;2188008;40;20451;-80
2021/05/19 06:57:50;;;;;;;;;;;;;;;12.09;68.56;99990.56;2185328;40;19957;-78
2021/05/19 06:59:21;;;;;;;;;;;;;;;12.23;68.30;99984.63;2184083;40;19966;-79
2021/05/19 07:00:53;;;;;;;;;;;;;;;12.34;67.97;99986.19;2188409;40;19971;-77
2021/05/19 07:02:24;;;;;;;;;;;;;;;12.48;67.76;99992.81;2188769;40;19951;-78
2021/05/19 07:03:55;;;;;;;;;;;;;;;12.53;67.25;99979.78;2186107;40;19954;-78
2021/05/19 07:05:27;;;;;;;;;;;;;;;12.54;67.15;99992.19;2186174;40;19939;-77
2021/05/19 07:06:58;;;;;;;;;;;;;;;12.53;67.18;99995.88;2187718;40;19943;-77
2021/05/19 07:08:29;;;;;;;;;;;;;;;12.54;67.15;99992.19;2186568;40;19945;-77
2021/05/19 07:10:00;;;;;;;;;;;;;;;12.53;66.96;99995.88;2185993;40;19939;-78
2021/05/19 07:11:31;;;;;;;;;;;;;;;12.42;66.84;99998.81;2184233;40;19936;-78
2021/05/19 07:13:03;;;;;;;;;;;;;;;12.29;67.19;99994.72;2185356;40;19927;-77
2021/05/19 07:14:36;;;;;;;;;;;;;;;12.20;67.46;99998.34;2189963;40;20001;-76
2021/05/19 07:16:08;;;;;;;;;;;;;;;12.12;67.30;99999.13;2185233;40;20385;-78
2021/05/19 07:17:39;;;;;;;;;;;;;;;12.07;67.30;100005.94;2184129;40;20365;-78
2021/05/19 07:19:10;;;;;;;;;;;;;;;12.04;67.45;100006.25;2185799;40;19947;-80
2021/05/19 07:20:41;;;;;;;;;;;;;;;12.04;67.72;100007.13;2182873;40;19938;-78
2021/05/19 07:22:12;;;;;;;;;;;;;;;12.02;67.81;100007.25;2184113;40;19939;-79
2021/05/19 07:23:43;;;;;;;;;;;;;;;12.01;67.82;100018.13;2183639;40;19939;-77
2021/05/19 07:25:14;;;;;;;;;;;;;;;11.96;67.81;100010.53;2184332;40;19942;-79
2021/05/19 07:26:46;;;;;;;;;;;;;;;11.87;67.85;100016.81;2183368;40;19947;-80
2021/05/19 07:28:18;;;;;;;;;;;;;;;11.83;68.25;100015.41;2189112;40;19943;-77
2021/05/19 07:29:49;;;;;;;;;;;;;;;11.84;68.41;100012.59;2183378;40;19951;-78
2021/05/19 07:31:20;;;;;;;;;;;;;;;11.86;68.62;100015.13;2184997;40;20022;-78
2021/05/19 07:32:51;;;;;;;;;;;;;;;11.85;68.75;100018.78;2182328;40;19998;-78
2021/05/19 07:34:22;;;;;;;;;;;;;;;11.89;68.78;100020.19;2184127;41;19947;-76
2021/05/19 07:35:53;;;;;;;;;;;;;;;11.86;68.98;100012.44;2183290;40;19950;-78
2021/05/19 07:37:24;;;;;;;;;;;;;;;11.82;69.14;100019.94;2178187;41;19947;-78
2021/05/19 07:38:55;;;;;;;;;;;;;;;11.82;69.12;100021.78;2183307;40;19935;-78
2021/05/19 07:40:27;;;;;;;;;;;;;;;11.80;69.00;100015.75;2189324;40;19979;-78
2021/05/19 07:41:58;;;;;;;;;;;;;;;11.77;69.02;100021.41;2181375;40;19946;-78
2021/05/19 07:43:30;;;;;;;;;;;;;;;11.76;68.75;100025.06;2183901;41;19942;-77
2021/05/19 07:45:01;;;;;;;;;;;;;;;11.73;68.71;100022.69;2182086;40;19950;-78
2021/05/19 07:46:32;;;;;;;;;;;;;;;11.74;68.61;100022.56;2183599;40;19939;-78
2021/05/19 07:48:04;;;;;;;;;;;;;;;11.75;68.67;100018.03;2182383;40;19939;-78
2021/05/19 07:49:35;;;;;;;;;;;;;;;11.75;68.62;100018.88;2187935;40;19994;-78
2021/05/19 07:51:06;;;;;;;;;;;;;;;11.89;68.35;100030.91;2187691;40;19938;-79
2021/05/19 07:52:37;;;;;;;;;;;;;;;11.93;68.21;100020.72;2183609;41;19947;-79
2021/05/19 07:54:09;;;;;;;;;;;;;;;12.01;68.01;100018.13;2182530;40;19953;-78
2021/05/19 07:55:45;;;;;;;;;;;;;;;12.12;67.76;100019.72;2189537;40;20296;-76
2021/05/19 07:57:20;;;;;;;;;;;;;;;12.20;67.62;100018.94;2187505;40;20320;-77
2021/05/19 07:58:56;;;;;;;;;;;;;;;12.41;67.41;100021.25;2186643;40;19943;-78
2021/05/19 08:00:41;;;;;;;;;;;;;;;12.58;66.88;100011.50;2182139;40;19962;-80
2021/05/19 08:02:12;;;;;;;;;;;;;;;12.70;66.33;100004.88;2184307;40;19955;-78
2021/05/19 08:04:11;;;;;;;;;;;;;;;12.58;65.85;100004.28;2181774;40;20292;-79
2021/05/19 08:09:50;;;;;;;;;;;;;;;12.51;66.27;100008.59;2175294;41;19951;-80
2021/05/19 08:13:30;;;;;;;;;;;;;;;12.52;66.91;100010.28;2177423;41;19944;-81
2021/05/19 08:15:04;;;;;;;;;;;;;;;12.53;66.89;100022.69;2175108;40;19944;-80
2021/05/19 08:16:48;;;;;;;;;;;;;;;12.49;67.19;100015.94;2177016;41;19939;-81
2021/05/19 08:18:36;;;;;;;;;;;;;;;12.41;67.59;100018.59;2173972;40;19935;-80
2021/05/19 08:21:59;;;;;;;;;;;;;;;12.16;67.93;100026.47;2175266;41;20340;-80
2021/05/19 08:25:20;;;;;;;;;;;;;;;12.00;69.09;100028.00;2183344;41;19935;-81
2021/05/19 08:27:10;;;;;;;;;;;;;;;11.98;69.27;100024.66;2179476;40;19951;-80
2021/05/19 08:29:02;;;;;;;;;;;;;;;11.94;69.17;100027.75;2182579;41;20240;-80
2021/05/19 08:32:47;;;;;;;;;;;;;;;12.04;69.27;100016.97;2179983;40;20249;-81
2021/05/19 08:36:37;;;;;;;;;;;;;;;12.09;68.81;100020.88;2182202;40;20359;-83
2021/05/19 08:38:15;;;;;;;;;;;;;;;12.09;68.70;100028.09;2184904;41;19942;-80
2021/05/19 08:48:19;;;;;;;;;;;;;;;13.35;65.28;100007.94;2181127;40;20193;-82
2021/05/19 08:54:31;;;;;;;;;;;;;;;13.77;63.63;100014.25;2143783;40;20398;-79
2021/05/19 08:56:24;;;;;;;;;;;;;;;14.02;62.95;100017.81;2179376;41;19943;-80
2021/05/19 08:58:00;;;;;;;;;;;;;;;13.98;62.13;100011.09;2169605;40;19939;-80
2021/05/19 09:01:44;;;;;;;;;;;;;;;14.21;61.62;100003.19;2172481;41;19939;-81
2021/05/19 09:03:16;;;;;;;;;;;;;;;14.19;61.56;99997.97;2157892;40;19940;-79
2021/05/19 09:05:06;;;;;;;;;;;;;;;14.34;61.33;99999.97;2173007;41;19936;-81
2021/05/19 09:30:47;;;;;;;;;;;;;;;15.84;55.99;99960.59;2169629;41;19954;-79
2021/05/19 09:32:19;;;;;;;;;;;;;;;15.64;56.62;99957.50;2179180;41;20215;-81
2021/05/19 09:33:51;;;;;;;;;;;;;;;15.52;56.61;99962.47;2184624;40;19995;-80
2021/05/19 09:35:22;;;;;;;;;;;;;;;15.29;56.14;99968.72;2183539;40;19942;-80
2021/05/19 09:36:53;;;;;;;;;;;;;;;15.27;55.56;99970.72;2185230;40;20338;-81
2021/05/19 09:38:28;;;;;;;;;;;;;;;15.38;55.02;99956.88;2184323;40;19950;-80
2021/05/19 09:40:00;;;;;;;;;;;;;;;15.71;54.32;99959.31;2183878;40;20464;-78
2021/05/19 09:41:32;;;;;;;;;;;;;;;15.88;53.24;99961.91;2183598;40;19950;-77
2021/05/19 09:43:03;;;;;;;;;;;;;;;15.91;53.26;99950.75;2185631;40;19947;-77
2021/05/19 09:44:33;;;;;;;;;;;;;;;15.96;53.47;99944.81;2184998;40;19939;-77
2021/05/19 09:46:13;;;;;;;;;;;;;;;15.94;53.47;99946.84;2182022;40;19943;-78
2021/05/19 09:47:45;;;;;;;;;;;;;;;15.65;53.86;99945.72;2183496;40;19939;-77
2021/05/19 09:49:16;;;;;;;;;;;;;;;15.46;53.76;99955.13;2180199;40;20020;-79
2021/05/19 09:50:48;;;;;;;;;;;;;;;15.19;54.04;99960.00;2182263;40;19954;-78
2021/05/19 09:52:20;;;;;;;;;;;;;;;15.18;54.55;99961.03;2185421;40;19943;-80
2021/05/19 09:53:51;;;;;;;;;;;;;;;15.34;53.87;99955.53;2184674;40;19939;-78